Airfield :
LOGIN :

Register | Disclaimer

   EN    FR    IT 

 










Legend :    VFR   Marginal VFR   IFR   Intensive IFR   Very Intensive IFR
Visi :
Ceiling :
>= 8 km
>= 3000ft
5 to 8 km
1000 to 3000 ft
1500m to 5 km
500 to 1000 ft
800 to 1500m
200 to 500 ft
< 800m
< 200 ft
Symbols :   Thunderstorms  Fog  Heavy snow  Heavy precipitations  Wind > 20 kt
SIGMETs :     Misc.  Thunderstorms  Icing  Turbulence  Mountain Waves  Volcanic Ashes







- Airport Elevation : 187 ft


ETNW - Wunstorf AB

CURRENT METAR :
  • 250830Z 26022G33KT 9999 BKN022 BKN060 15/09 Q1005 WHT BLU TEMPO GRN

EXPIRED METARs :
  • 250820Z 26023G36KT 9999 SCT022 BKN060 15/09 Q1005 BLU BLU TEMPO GRN
  • 250720Z 25024G34KT 9999 -SHRA FEW010 SCT020TCU BKN070 15/10 Q1004 BLU BLU TEMPO GRN
  • 250620Z 24016KT 9999 FEW015 SCT026 BKN070 15/09 Q1004 BLU BLU TEMPO GRN

TAF TAF ETNW
Valid from the 24 at 23:00 until the 25 at 23:00 UTC


242223Z 2423/2523 21008KT 8000 NSW FEW012 BKN030
TEMPO 2500/2508 23012KT 4000 RA BKN007
BECMG 2506/2508 26015G25KT 8000 NSW SCT012 BKN025
TEMPO 2508/2512 28018G32KT 5000 SHRA BKN010 BKN020TCU
BECMG 2512/2514 27012KT 9999 NSW SCT015 BKN050 BY ETGL
No reported NOTAMs for that airfield.



MET'MAP, your aeronautical weather chart ! - Copyright ORBIFLY December 2007 - Disclaimer

ORBIFLY MET'MAP TEAM :

Programming & Development : Alexandra Zaïnal
Concept & Development : Baudouin d'Aumeries
Co-Development & Prog : Marc-Olivier Méhu
Technical & hardware support : Manuel Goepfert

Contact : metmap@orbifly.com




SOURCES & CREDITS :

   NOAA